Time;durP1;ratioP1;P1;durP2;ratioP2;P2;SDS_P1;SDS_P2;PMS_P1;PMS_P2;Temp;Humidity;BMP_temperature;BMP_pressure;BME280_temperature;BME280_humidity;BME280_pressure;Samples;Min_cycle;Max_cycle;Signal;HPM_P1;HPM_P2
2022/04/16 00:00:15;;;;;;;11.83;9.93;;;;;;;;;;5014488;28;20222;-70
2022/04/16 00:02:40;;;;;;;15.63;11.87;;;;;;;;;;5015092;28;20179;-70
2022/04/16 00:05:05;;;;;;;12.90;10.60;;;;;;;;;;5014268;28;20198;-70
2022/04/16 00:07:31;;;;;;;15.63;9.93;;;;;;;;;;5010359;28;20204;-70
2022/04/16 00:09:57;;;;;;;11.87;10.17;;;;;;;;;;5014418;28;20195;-70
2022/04/16 00:12:22;;;;;;;12.83;9.80;;;;;;;;;;5007306;28;20190;-70
2022/04/16 00:14:49;;;;;;;11.97;10.37;;;;;;;;;;5014449;28;20183;-71
2022/04/16 00:17:15;;;;;;;12.33;9.77;;;;;;;;;;5014861;28;20178;-70
2022/04/16 00:19:41;;;;;;;11.10;9.93;;;;;;;;;;5014733;28;20182;-70
2022/04/16 00:22:09;;;;;;;11.47;10.03;;;;;;;;;;5025965;28;20181;-68
2022/04/16 00:24:34;;;;;;;12.53;10.27;;;;;;;;;;5025803;28;20202;-71
2022/04/16 00:27:00;;;;;;;13.57;9.87;;;;;;;;;;5014010;28;20171;-70
2022/04/16 00:29:26;;;;;;;13.10;10.00;;;;;;;;;;5011572;28;20179;-70
2022/04/16 00:31:52;;;;;;;12.57;10.17;;;;;;;;;;5015495;28;20178;-71
2022/04/16 00:34:18;;;;;;;11.40;9.30;;;;;;;;;;5009568;28;20562;-70
2022/04/16 00:36:44;;;;;;;12.40;9.83;;;;;;;;;;5010859;28;20183;-70
2022/04/16 00:39:09;;;;;;;10.30;9.27;;;;;;;;;;5008842;28;20218;-70
2022/04/16 00:41:35;;;;;;;12.37;9.60;;;;;;;;;;5011232;28;20226;-70
2022/04/16 00:44:00;;;;;;;11.43;10.27;;;;;;;;;;5013464;28;20167;-70
2022/04/16 00:46:25;;;;;;;12.07;10.50;;;;;;;;;;5014028;28;20206;-70
2022/04/16 00:48:50;;;;;;;11.57;10.40;;;;;;;;;;5012946;28;20201;-68
2022/04/16 00:51:16;;;;;;;11.50;10.30;;;;;;;;;;5008166;28;20214;-70
2022/04/16 00:53:41;;;;;;;11.33;9.90;;;;;;;;;;5012524;28;20648;-70
2022/04/16 00:56:07;;;;;;;13.60;10.37;;;;;;;;;;5012003;28;20183;-70
2022/04/16 00:58:32;;;;;;;11.40;10.23;;;;;;;;;;5012874;28;20735;-71
2022/04/16 01:00:58;;;;;;;11.57;10.20;;;;;;;;;;5012904;28;20217;-70
2022/04/16 01:03:23;;;;;;;11.83;10.57;;;;;;;;;;5012668;28;20199;-70
2022/04/16 01:05:48;;;;;;;12.60;10.23;;;;;;;;;;5013375;28;20227;-71
2022/04/16 01:08:17;;;;;;;13.57;10.90;;;;;;;;;;5011065;28;20167;-71
2022/04/16 01:10:42;;;;;;;13.40;11.80;;;;;;;;;;5013985;28;20210;-71
2022/04/16 01:13:07;;;;;;;14.05;10.77;;;;;;;;;;5012621;28;20175;-71
2022/04/16 01:15:33;;;;;;;12.97;11.60;;;;;;;;;;5007976;28;20567;-71
2022/04/16 01:18:02;;;;;;;12.67;11.17;;;;;;;;;;5005981;28;20171;-71
2022/04/16 01:20:27;;;;;;;19.23;12.63;;;;;;;;;;5009420;28;20247;-70
2022/04/16 01:22:56;;;;;;;15.45;12.63;;;;;;;;;;5009090;28;20685;-70
2022/04/16 01:25:24;;;;;;;13.90;11.83;;;;;;;;;;5011525;28;20660;-70
2022/04/16 01:27:49;;;;;;;13.50;11.53;;;;;;;;;;5010167;28;20195;-70
2022/04/16 01:30:22;;;;;;;13.88;11.80;;;;;;;;;;5009931;28;20198;-70
2022/04/16 01:32:48;;;;;;;13.83;12.33;;;;;;;;;;5013989;28;20217;-70
2022/04/16 01:35:14;;;;;;;13.67;12.07;;;;;;;;;;5010483;28;20288;-71
2022/04/16 01:37:39;;;;;;;20.73;12.20;;;;;;;;;;5007500;28;20183;-70
2022/04/16 01:40:07;;;;;;;19.10;13.83;;;;;;;;;;5011442;28;20206;-70
2022/04/16 01:42:32;;;;;;;15.17;12.97;;;;;;;;;;5004582;28;20193;-70
2022/04/16 01:45:01;;;;;;;14.60;12.63;;;;;;;;;;5004179;28;20194;-70
2022/04/16 01:47:27;;;;;;;14.53;12.80;;;;;;;;;;5006413;28;20236;-70
2022/04/16 01:49:53;;;;;;;21.00;14.37;;;;;;;;;;5010919;28;20190;-71
2022/04/16 01:52:18;;;;;;;17.10;13.80;;;;;;;;;;5012263;28;20259;-70
2022/04/16 01:54:43;;;;;;;16.30;13.87;;;;;;;;;;5006070;28;20187;-70
2022/04/16 01:57:08;;;;;;;20.73;13.63;;;;;;;;;;5007396;28;20218;-70
2022/04/16 01:59:34;;;;;;;17.27;13.10;;;;;;;;;;5004750;28;20562;-70
2022/04/16 02:01:59;;;;;;;14.43;12.67;;;;;;;;;;5001266;28;20314;-70
2022/04/16 02:04:25;;;;;;;19.00;13.70;;;;;;;;;;5020221;28;20524;-70
2022/04/16 02:06:50;;;;;;;15.47;12.93;;;;;;;;;;5006491;28;20179;-70
2022/04/16 02:09:16;;;;;;;17.37;14.07;;;;;;;;;;5007668;28;20178;-70
2022/04/16 02:11:41;;;;;;;21.30;14.13;;;;;;;;;;5013241;28;20273;-70
2022/04/16 02:14:06;;;;;;;16.07;13.93;;;;;;;;;;5010882;28;20175;-70
2022/04/16 02:16:32;;;;;;;16.13;13.20;;;;;;;;;;5011993;28;20187;-70
2022/04/16 02:18:57;;;;;;;18.83;13.40;;;;;;;;;;5009923;28;20187;-70
2022/04/16 02:21:22;;;;;;;14.73;12.88;;;;;;;;;;5009221;28;20206;-70
2022/04/16 02:23:48;;;;;;;15.33;13.43;;;;;;;;;;5003077;28;20258;-70
2022/04/16 02:26:13;;;;;;;17.43;14.83;;;;;;;;;;5015759;28;20195;-69
2022/04/16 02:28:39;;;;;;;20.52;14.00;;;;;;;;;;5010171;28;20179;-69
2022/04/16 02:31:04;;;;;;;20.38;14.50;;;;;;;;;;5011780;28;20692;-69
2022/04/16 02:33:30;;;;;;;22.07;16.47;;;;;;;;;;5010072;28;20168;-69
2022/04/16 02:35:57;;;;;;;20.90;14.87;;;;;;;;;;5008602;28;20175;-69
2022/04/16 02:38:22;;;;;;;19.97;14.73;;;;;;;;;;5010513;28;20179;-71
2022/04/16 02:40:47;;;;;;;18.30;15.90;;;;;;;;;;5010096;28;20202;-70
2022/04/16 02:43:12;;;;;;;22.63;16.97;;;;;;;;;;5008357;28;20183;-70
2022/04/16 02:48:21;;;;;;;18.33;15.47;;;;;;;;;;5003288;28;20210;-70
2022/04/16 02:50:47;;;;;;;22.05;15.52;;;;;;;;;;5006042;28;20282;-70
2022/04/16 02:53:12;;;;;;;18.73;15.05;;;;;;;;;;5008595;28;20167;-70
2022/04/16 02:55:37;;;;;;;19.17;14.40;;;;;;;;;;5005321;28;20181;-70
2022/04/16 02:58:03;;;;;;;20.50;14.90;;;;;;;;;;5011059;28;20175;-71
2022/04/16 03:00:28;;;;;;;19.33;15.13;;;;;;;;;;5009044;28;20210;-70
2022/04/16 03:02:54;;;;;;;23.03;16.80;;;;;;;;;;5012872;28;20181;-70
2022/04/16 03:05:19;;;;;;;18.57;14.70;;;;;;;;;;5005624;28;20226;-70
2022/04/16 03:07:44;;;;;;;24.70;15.90;;;;;;;;;;5009519;28;20237;-70
2022/04/16 03:10:10;;;;;;;21.37;16.30;;;;;;;;;;5007595;28;20248;-70
2022/04/16 03:12:45;;;;;;;19.93;15.73;;;;;;;;;;5012224;28;20171;-70
2022/04/16 03:17:55;;;;;;;22.07;16.70;;;;;;;;;;5010121;28;20285;-70
2022/04/16 03:20:20;;;;;;;21.23;15.53;;;;;;;;;;5010725;28;20283;-70
2022/04/16 03:22:45;;;;;;;24.07;16.90;;;;;;;;;;5012204;28;20325;-70
2022/04/16 03:25:10;;;;;;;22.53;16.27;;;;;;;;;;5009686;28;20211;-70
2022/04/16 03:27:37;;;;;;;22.00;16.87;;;;;;;;;;5011529;28;20167;-70
2022/04/16 03:30:03;;;;;;;22.33;15.93;;;;;;;;;;5007525;28;20206;-70
2022/04/16 03:32:28;;;;;;;23.90;17.03;;;;;;;;;;5010412;28;20179;-70
2022/04/16 03:34:53;;;;;;;23.23;16.83;;;;;;;;;;5010989;28;20187;-70
2022/04/16 03:37:18;;;;;;;20.80;15.60;;;;;;;;;;5011374;28;20649;-70
2022/04/16 03:39:44;;;;;;;21.77;16.63;;;;;;;;;;5010680;28;20198;-70
2022/04/16 03:42:09;;;;;;;23.87;19.33;;;;;;;;;;5011519;28;20183;-70
2022/04/16 03:44:34;;;;;;;24.60;17.30;;;;;;;;;;5009129;28;20294;-70
2022/04/16 03:46:59;;;;;;;26.67;17.60;;;;;;;;;;5011398;28;20168;-70
2022/04/16 03:49:24;;;;;;;25.93;18.57;;;;;;;;;;5009675;28;20555;-70
2022/04/16 03:51:50;;;;;;;25.37;18.67;;;;;;;;;;5011011;28;20258;-70
2022/04/16 04:00:03;;;;;;;23.97;17.53;;;;;;;;;;5009286;28;20229;-68
2022/04/16 04:02:31;;;;;;;23.23;17.57;;;;;;;;;;5011146;28;20179;-70
2022/04/16 04:04:57;;;;;;;26.07;17.30;;;;;;;;;;5010959;28;20195;-69
2022/04/16 04:07:23;;;;;;;24.43;18.23;;;;;;;;;;5010689;28;20181;-69
2022/04/16 04:09:48;;;;;;;23.07;17.13;;;;;;;;;;5007893;28;20680;-69
2022/04/16 04:12:14;;;;;;;26.03;17.47;;;;;;;;;;5007842;28;20645;-69
2022/04/16 04:14:43;;;;;;;24.87;17.03;;;;;;;;;;5007684;28;20175;-69
2022/04/16 04:17:08;;;;;;;21.13;16.70;;;;;;;;;;5016870;28;20528;-69
2022/04/16 04:19:37;;;;;;;22.80;16.93;;;;;;;;;;5010222;28;20257;-69
2022/04/16 04:22:02;;;;;;;22.97;17.40;;;;;;;;;;5007896;28;20190;-69
2022/04/16 04:24:28;;;;;;;27.03;17.97;;;;;;;;;;5009510;28;20179;-69
2022/04/16 04:26:56;;;;;;;28.53;18.60;;;;;;;;;;5009384;28;20179;-69
2022/04/16 04:29:22;;;;;;;24.27;17.50;;;;;;;;;;5009478;28;20637;-69
2022/04/16 04:31:47;;;;;;;25.13;18.73;;;;;;;;;;5010368;28;20362;-69
2022/04/16 04:34:12;;;;;;;25.10;18.23;;;;;;;;;;5009946;28;20284;-69
2022/04/16 04:36:37;;;;;;;25.77;18.80;;;;;;;;;;5010704;28;20182;-71
2022/04/16 04:39:02;;;;;;;27.55;18.88;;;;;;;;;;5010246;28;20257;-70
2022/04/16 04:41:27;;;;;;;25.73;18.70;;;;;;;;;;5012351;28;20206;-70
2022/04/16 04:43:52;;;;;;;27.43;19.83;;;;;;;;;;5013273;28;20191;-68
2022/04/16 04:46:18;;;;;;;25.90;18.77;;;;;;;;;;5011260;28;20572;-71
2022/04/16 04:48:43;;;;;;;25.97;18.73;;;;;;;;;;5009739;28;20215;-71
2022/04/16 04:51:08;;;;;;;24.13;18.17;;;;;;;;;;5006250;28;20576;-68
2022/04/16 04:53:33;;;;;;;27.53;19.70;;;;;;;;;;5011340;28;20179;-72
2022/04/16 04:55:58;;;;;;;25.55;18.15;;;;;;;;;;5012638;28;20183;-71
2022/04/16 04:58:23;;;;;;;28.20;18.60;;;;;;;;;;5013002;28;20248;-69
2022/04/16 05:00:49;;;;;;;31.60;19.93;;;;;;;;;;5002850;28;20222;-69
2022/04/16 05:03:14;;;;;;;33.43;21.13;;;;;;;;;;5001922;28;20227;-69
2022/04/16 05:05:39;;;;;;;26.20;19.25;;;;;;;;;;5006010;28;20221;-69
2022/04/16 05:08:04;;;;;;;29.48;20.10;;;;;;;;;;5012878;28;20173;-70
2022/04/16 05:10:29;;;;;;;31.60;20.37;;;;;;;;;;5014461;28;20584;-69
2022/04/16 05:12:57;;;;;;;29.57;21.47;;;;;;;;;;5013448;28;20183;-69
2022/04/16 05:15:22;;;;;;;28.47;20.57;;;;;;;;;;4999636;28;20187;-69
2022/04/16 05:17:48;;;;;;;27.58;18.95;;;;;;;;;;5002569;28;20179;-69
2022/04/16 05:20:13;;;;;;;28.60;20.42;;;;;;;;;;5007509;28;20322;-69
2022/04/16 05:22:38;;;;;;;29.30;21.23;;;;;;;;;;5015472;28;20529;-69
2022/04/16 05:25:03;;;;;;;29.67;21.47;;;;;;;;;;5012854;28;20218;-69
2022/04/16 05:27:30;;;;;;;29.83;20.30;;;;;;;;;;5008746;28;20187;-69
2022/04/16 05:30:11;;;;;;;24.83;19.80;;;;;;;;;;5011752;28;20199;-69
2022/04/16 05:32:37;;;;;;;28.60;20.00;;;;;;;;;;5004643;28;20178;-70
2022/04/16 05:35:03;;;;;;;29.83;21.30;;;;;;;;;;5005950;28;20234;-69
2022/04/16 05:37:28;;;;;;;33.23;20.87;;;;;;;;;;5011665;28;20229;-69
2022/04/16 05:39:53;;;;;;;28.75;21.05;;;;;;;;;;5012768;28;20525;-71
2022/04/16 05:42:18;;;;;;;31.13;21.77;;;;;;;;;;5011238;28;20611;-69
2022/04/16 05:44:44;;;;;;;31.17;21.30;;;;;;;;;;5012138;28;20221;-69
2022/04/16 05:47:09;;;;;;;27.40;19.90;;;;;;;;;;5008104;28;20266;-69
2022/04/16 05:49:34;;;;;;;28.83;20.73;;;;;;;;;;5006183;28;20708;-69
2022/04/16 05:52:00;;;;;;;31.58;21.58;;;;;;;;;;5013480;28;20178;-69
2022/04/16 05:54:25;;;;;;;26.53;20.57;;;;;;;;;;5012949;28;20240;-69
2022/04/16 05:56:50;;;;;;;30.33;21.40;;;;;;;;;;5012651;28;20167;-69
2022/04/16 05:59:15;;;;;;;26.30;20.33;;;;;;;;;;5011594;28;20183;-69
2022/04/16 06:01:41;;;;;;;29.23;21.37;;;;;;;;;;5012904;28;20215;-70
2022/04/16 06:04:06;;;;;;;27.13;19.07;;;;;;;;;;5003068;28;20175;-69
2022/04/16 06:06:33;;;;;;;27.50;20.23;;;;;;;;;;5007586;28;20352;-69
2022/04/16 06:08:58;;;;;;;28.50;20.63;;;;;;;;;;5008121;28;20263;-70
2022/04/16 06:11:25;;;;;;;26.67;21.00;;;;;;;;;;5011814;28;20196;-71
2022/04/16 06:13:50;;;;;;;25.43;20.20;;;;;;;;;;5002706;28;20172;-70
2022/04/16 06:16:16;;;;;;;25.00;19.13;;;;;;;;;;4994194;28;20178;-70
2022/04/16 06:18:41;;;;;;;26.50;20.50;;;;;;;;;;4992781;28;20175;-70
2022/04/16 06:21:06;;;;;;;25.42;20.02;;;;;;;;;;4998455;28;20676;-70
2022/04/16 06:23:31;;;;;;;27.10;21.03;;;;;;;;;;5025433;28;20211;-70
2022/04/16 06:25:57;;;;;;;26.83;19.87;;;;;;;;;;5013027;28;20205;-70
2022/04/16 06:28:22;;;;;;;27.87;21.50;;;;;;;;;;4998211;28;20179;-70
2022/04/16 06:30:47;;;;;;;25.40;20.33;;;;;;;;;;5000151;28;20638;-68
2022/04/16 06:33:12;;;;;;;28.58;21.17;;;;;;;;;;4992815;28;20184;-70
2022/04/16 06:35:37;;;;;;;25.65;19.25;;;;;;;;;;4993215;28;20190;-70
2022/04/16 06:38:03;;;;;;;25.37;19.43;;;;;;;;;;4992610;28;20576;-70
2022/04/16 06:40:29;;;;;;;26.60;20.50;;;;;;;;;;4999851;28;20436;-71
2022/04/16 06:42:54;;;;;;;24.77;20.07;;;;;;;;;;5011424;28;20560;-70
2022/04/16 06:45:19;;;;;;;25.20;19.47;;;;;;;;;;4998232;28;20191;-70
2022/04/16 06:47:44;;;;;;;26.20;20.80;;;;;;;;;;4992358;28;20176;-70
2022/04/16 06:50:09;;;;;;;25.90;19.50;;;;;;;;;;5006226;28;20213;-70
2022/04/16 06:52:34;;;;;;;24.60;19.63;;;;;;;;;;5008118;28;20174;-70
2022/04/16 06:55:00;;;;;;;24.80;20.27;;;;;;;;;;5017172;28;20175;-68
2022/04/16 06:57:25;;;;;;;24.70;19.50;;;;;;;;;;5007948;28;20335;-70
2022/04/16 06:59:50;;;;;;;26.50;19.73;;;;;;;;;;5011186;28;20222;-71
2022/04/16 07:02:16;;;;;;;24.70;19.90;;;;;;;;;;4996527;28;20183;-70
2022/04/16 07:04:41;;;;;;;25.73;18.67;;;;;;;;;;5004162;28;20203;-70
2022/04/16 07:07:08;;;;;;;22.63;17.83;;;;;;;;;;5009817;28;20263;-71
2022/04/16 07:09:38;;;;;;;22.10;18.90;;;;;;;;;;4996665;28;20183;-70
2022/04/16 07:12:03;;;;;;;22.87;18.67;;;;;;;;;;5008020;28;20250;-71
2022/04/16 07:14:28;;;;;;;23.40;19.53;;;;;;;;;;5011177;28;20246;-70
2022/04/16 07:16:53;;;;;;;24.20;18.90;;;;;;;;;;5012107;28;20656;-70
2022/04/16 07:19:19;;;;;;;25.57;19.40;;;;;;;;;;5002523;28;20187;-70
2022/04/16 07:21:44;;;;;;;21.73;18.40;;;;;;;;;;5017848;28;20514;-70
2022/04/16 07:24:09;;;;;;;22.43;18.63;;;;;;;;;;5014905;28;20258;-70
2022/04/16 07:26:34;;;;;;;24.37;18.27;;;;;;;;;;5011746;28;20290;-68
2022/04/16 07:28:59;;;;;;;22.77;17.53;;;;;;;;;;5010955;28;20637;-70
2022/04/16 07:31:24;;;;;;;22.02;17.92;;;;;;;;;;5011224;28;20199;-70
2022/04/16 07:33:50;;;;;;;21.37;17.13;;;;;;;;;;5011111;28;20416;-69
2022/04/16 07:36:15;;;;;;;19.57;17.47;;;;;;;;;;5008408;28;20427;-69
2022/04/16 07:38:43;;;;;;;19.67;16.40;;;;;;;;;;5010387;28;20246;-69
2022/04/16 07:41:09;;;;;;;20.33;15.77;;;;;;;;;;5011464;28;20508;-69
2022/04/16 07:43:34;;;;;;;22.35;17.42;;;;;;;;;;5011458;28;20499;-69
2022/04/16 07:45:59;;;;;;;20.55;17.48;;;;;;;;;;5011682;28;20228;-69
2022/04/16 07:48:24;;;;;;;18.02;15.75;;;;;;;;;;5009449;28;20417;-69
2022/04/16 07:50:50;;;;;;;20.35;17.02;;;;;;;;;;5011490;28;20206;-69
2022/04/16 07:53:15;;;;;;;21.27;18.00;;;;;;;;;;5006855;28;20181;-69
2022/04/16 07:55:40;;;;;;;19.33;16.42;;;;;;;;;;5005118;28;20287;-69
2022/04/16 07:58:05;;;;;;;22.38;17.38;;;;;;;;;;5006795;28;20182;-70
2022/04/16 08:00:31;;;;;;;19.42;16.40;;;;;;;;;;5010000;28;20203;-70
2022/04/16 08:02:56;;;;;;;18.83;16.80;;;;;;;;;;5011478;28;20448;-70
2022/04/16 08:05:21;;;;;;;19.48;17.38;;;;;;;;;;5005264;28;20234;-70
2022/04/16 08:07:46;;;;;;;21.08;16.55;;;;;;;;;;5004084;28;20283;-70
2022/04/16 08:10:12;;;;;;;19.92;16.50;;;;;;;;;;5003737;28;20222;-70
2022/04/16 08:12:37;;;;;;;20.17;17.00;;;;;;;;;;5008343;28;20192;-69
2022/04/16 08:15:03;;;;;;;19.73;17.45;;;;;;;;;;5011398;28;20656;-69
2022/04/16 08:17:28;;;;;;;20.48;17.00;;;;;;;;;;5007652;28;20179;-69
2022/04/16 08:19:54;;;;;;;21.23;17.58;;;;;;;;;;5012299;28;20574;-69
2022/04/16 08:22:21;;;;;;;20.30;16.80;;;;;;;;;;5013666;28;20657;-70
2022/04/16 08:27:34;;;;;;;18.23;16.33;;;;;;;;;;5012618;28;20628;-69
2022/04/16 08:29:59;;;;;;;19.02;16.45;;;;;;;;;;5014490;28;20265;-70
2022/04/16 08:32:24;;;;;;;21.90;17.20;;;;;;;;;;5008014;28;20649;-68
2022/04/16 08:34:50;;;;;;;19.85;17.13;;;;;;;;;;4994921;28;20172;-70
2022/04/16 08:37:15;;;;;;;19.00;16.98;;;;;;;;;;4993686;28;20409;-70
2022/04/16 08:39:40;;;;;;;18.63;16.63;;;;;;;;;;5006982;28;20213;-70
2022/04/16 08:42:05;;;;;;;21.17;17.45;;;;;;;;;;5013682;28;20892;-70
2022/04/16 08:44:31;;;;;;;20.25;17.30;;;;;;;;;;4997746;28;20481;-70
2022/04/16 08:46:57;;;;;;;20.52;17.13;;;;;;;;;;5009114;28;20507;-69
2022/04/16 08:49:25;;;;;;;20.75;16.40;;;;;;;;;;5010940;28;20190;-69
2022/04/16 08:51:50;;;;;;;18.15;16.25;;;;;;;;;;5010656;28;20176;-70
2022/04/16 08:54:15;;;;;;;18.38;15.43;;;;;;;;;;5004738;28;20183;-70
2022/04/16 08:56:41;;;;;;;16.98;15.23;;;;;;;;;;5013220;28;20183;-70
2022/04/16 08:59:06;;;;;;;16.42;14.75;;;;;;;;;;5012713;28;20186;-70
2022/04/16 09:01:32;;;;;;;16.38;14.23;;;;;;;;;;5006444;28;20210;-70
2022/04/16 09:03:59;;;;;;;17.50;14.13;;;;;;;;;;5011251;28;20443;-69
2022/04/16 09:06:24;;;;;;;17.08;14.68;;;;;;;;;;5012199;28;20680;-69
2022/04/16 09:08:49;;;;;;;16.17;12.88;;;;;;;;;;5013132;28;20175;-70
2022/04/16 09:11:19;;;;;;;15.18;13.35;;;;;;;;;;5005232;28;20200;-69
2022/04/16 09:13:50;;;;;;;13.00;11.60;;;;;;;;;;5012228;28;20182;-68
2022/04/16 09:16:16;;;;;;;14.02;12.63;;;;;;;;;;5010465;28;20194;-70
2022/04/16 09:18:50;;;;;;;15.00;12.73;;;;;;;;;;5007298;28;20176;-68
2022/04/16 09:21:15;;;;;;;13.77;12.10;;;;;;;;;;5004921;28;20199;-70
2022/04/16 09:23:44;;;;;;;12.00;10.68;;;;;;;;;;5013149;28;20206;-68
2022/04/16 09:26:09;;;;;;;12.68;10.90;;;;;;;;;;5010356;28;20206;-69
2022/04/16 09:28:42;;;;;;;13.15;11.57;;;;;;;;;;5010529;28;20541;-69
2022/04/16 09:31:07;;;;;;;12.15;10.82;;;;;;;;;;5011029;28;20931;-67
2022/04/16 09:33:36;;;;;;;14.45;12.02;;;;;;;;;;5009739;28;20269;-70
2022/04/16 09:36:01;;;;;;;11.80;10.55;;;;;;;;;;5012899;28;20175;-67
2022/04/16 09:38:33;;;;;;;12.30;10.35;;;;;;;;;;5012374;28;20178;-69
2022/04/16 09:41:03;;;;;;;10.43;9.40;;;;;;;;;;5012677;28;20197;-69
2022/04/16 09:43:38;;;;;;;11.38;10.18;;;;;;;;;;5012720;28;20182;-67
2022/04/16 09:46:09;;;;;;;12.73;11.43;;;;;;;;;;5012701;28;20229;-68
2022/04/16 09:48:36;;;;;;;12.57;11.27;;;;;;;;;;4996856;28;20179;-68
2022/04/16 09:51:01;;;;;;;11.52;10.40;;;;;;;;;;5011682;28;20245;-68
2022/04/16 09:53:28;;;;;;;9.32;8.20;;;;;;;;;;5012987;28;20211;-69
2022/04/16 09:55:54;;;;;;;9.45;8.45;;;;;;;;;;5011211;28;20274;-68
2022/04/16 09:58:25;;;;;;;12.50;9.98;;;;;;;;;;5012051;28;20286;-68
2022/04/16 10:00:50;;;;;;;10.32;8.75;;;;;;;;;;5012147;28;20222;-68
2022/04/16 10:03:15;;;;;;;10.05;8.05;;;;;;;;;;5012411;28;20187;-68
2022/04/16 10:05:41;;;;;;;8.45;7.47;;;;;;;;;;4998424;28;20607;-70
2022/04/16 10:08:07;;;;;;;8.57;7.72;;;;;;;;;;5019016;28;20175;-68
2022/04/16 10:10:40;;;;;;;9.07;8.20;;;;;;;;;;5012161;28;20245;-68
2022/04/16 10:13:08;;;;;;;7.90;7.05;;;;;;;;;;5012534;28;20704;-68
2022/04/16 10:15:39;;;;;;;7.18;6.47;;;;;;;;;;5012235;28;20175;-68
2022/04/16 10:18:04;;;;;;;6.75;5.72;;;;;;;;;;5011963;28;20175;-68
2022/04/16 10:20:29;;;;;;;7.13;6.43;;;;;;;;;;5002717;28;20250;-68
2022/04/16 10:22:55;;;;;;;6.35;5.60;;;;;;;;;;5012529;28;20170;-68
2022/04/16 10:25:34;;;;;;;6.13;4.40;;;;;;;;;;5021653;28;20205;-68
2022/04/16 10:28:06;;;;;;;4.82;4.43;;;;;;;;;;5005928;28;20178;-69
2022/04/16 10:30:38;;;;;;;5.40;4.85;;;;;;;;;;5017400;28;20198;-68
2022/04/16 10:33:24;;;;;;;5.80;5.20;;;;;;;;;;5016187;28;20733;-68
2022/04/16 10:35:54;;;;;;;4.65;4.25;;;;;;;;;;5017441;28;20542;-68
2022/04/16 10:38:31;;;;;;;4.32;3.92;;;;;;;;;;5010003;28;20178;-69
2022/04/16 10:40:57;;;;;;;4.63;4.22;;;;;;;;;;5011379;28;20596;-68
2022/04/16 10:43:40;;;;;;;3.88;3.50;;;;;;;;;;5011651;28;20173;-68
2022/04/16 10:46:07;;;;;;;4.28;3.95;;;;;;;;;;5008082;28;20278;-69
2022/04/16 10:48:38;;;;;;;4.97;4.45;;;;;;;;;;5010716;28;20175;-71
2022/04/16 10:51:07;;;;;;;5.43;4.50;;;;;;;;;;5010770;28;20199;-69
2022/04/16 10:53:33;;;;;;;5.10;4.60;;;;;;;;;;5011327;28;20175;-68
2022/04/16 10:56:15;;;;;;;5.85;5.07;;;;;;;;;;5011001;28;20174;-68
2022/04/16 10:58:41;;;;;;;4.80;4.30;;;;;;;;;;5006318;28;20610;-68
2022/04/16 11:01:08;;;;;;;2.83;2.50;;;;;;;;;;5011295;28;20206;-68
2022/04/16 11:03:33;;;;;;;3.38;3.08;;;;;;;;;;5010053;28;20541;-68
2022/04/16 11:06:07;;;;;;;3.60;3.25;;;;;;;;;;5009327;28;20255;-68
2022/04/16 11:08:33;;;;;;;5.78;4.78;;;;;;;;;;5010413;28;21057;-68
2022/04/16 11:10:58;;;;;;;5.38;4.63;;;;;;;;;;5010725;28;20270;-68
2022/04/16 11:13:25;;;;;;;4.70;4.22;;;;;;;;;;5010910;28;20649;-68
2022/04/16 11:15:51;;;;;;;5.20;4.70;;;;;;;;;;5010732;28;20660;-68
2022/04/16 11:18:17;;;;;;;5.80;5.20;;;;;;;;;;5009045;28;20183;-69
2022/04/16 11:20:43;;;;;;;6.40;5.15;;;;;;;;;;5010957;28;20205;-68
2022/04/16 11:23:11;;;;;;;4.93;4.53;;;;;;;;;;5010871;28;20266;-69
2022/04/16 11:34:14;;;;;;;4.75;4.35;;;;;;;;;;5010739;28;20501;-68
2022/04/16 11:36:39;;;;;;;4.93;4.45;;;;;;;;;;5007605;28;20216;-68
2022/04/16 11:39:04;;;;;;;6.37;5.73;;;;;;;;;;5013060;28;20179;-69
2022/04/16 11:41:30;;;;;;;7.47;5.67;;;;;;;;;;5011052;28;20443;-69
2022/04/16 11:43:55;;;;;;;9.00;5.50;;;;;;;;;;5011386;28;20457;-68
2022/04/16 11:46:22;;;;;;;4.97;4.50;;;;;;;;;;5010731;28;20494;-69
2022/04/16 11:48:47;;;;;;;5.43;4.93;;;;;;;;;;5010393;28;20262;-69
2022/04/16 11:51:13;;;;;;;6.47;5.70;;;;;;;;;;5013955;28;20345;-68
2022/04/16 11:53:45;;;;;;;7.40;6.57;;;;;;;;;;5012050;28;20179;-68
2022/04/16 11:56:10;;;;;;;6.25;5.65;;;;;;;;;;5015153;28;20268;-68
2022/04/16 11:58:36;;;;;;;6.78;6.07;;;;;;;;;;5014387;28;20218;-69
2022/04/16 12:01:02;;;;;;;6.57;5.97;;;;;;;;;;5015032;28;20213;-68
2022/04/16 12:03:37;;;;;;;7.30;6.60;;;;;;;;;;5014839;28;20415;-68
2022/04/16 12:06:02;;;;;;;10.07;5.90;;;;;;;;;;5011624;28;20737;-68
2022/04/16 12:08:30;;;;;;;5.20;4.80;;;;;;;;;;5010605;28;20179;-68
2022/04/16 12:10:59;;;;;;;7.28;5.95;;;;;;;;;;5012151;28;20447;-68
2022/04/16 12:13:33;;;;;;;6.05;5.50;;;;;;;;;;5013908;28;20187;-69
2022/04/16 12:16:02;;;;;;;6.15;5.55;;;;;;;;;;5013147;28;20260;-69
2022/04/16 12:18:33;;;;;;;6.38;5.78;;;;;;;;;;5009112;28;20179;-68
2022/04/16 12:21:04;;;;;;;6.70;6.05;;;;;;;;;;5014801;28;20300;-68
2022/04/16 12:23:30;;;;;;;7.05;6.35;;;;;;;;;;5009112;28;20187;-68
2022/04/16 12:26:11;;;;;;;6.45;5.95;;;;;;;;;;5015114;28;20195;-69
2022/04/16 12:28:37;;;;;;;6.03;5.40;;;;;;;;;;5012090;28;20160;-68
2022/04/16 12:31:03;;;;;;;6.45;5.95;;;;;;;;;;5018939;28;20267;-69
2022/04/16 12:33:28;;;;;;;6.72;6.00;;;;;;;;;;5024414;28;20637;-68
2022/04/16 12:35:56;;;;;;;6.10;5.45;;;;;;;;;;5014512;28;20175;-68
2022/04/16 12:38:21;;;;;;;6.07;4.88;;;;;;;;;;5011639;28;20672;-70
2022/04/16 12:40:47;;;;;;;6.70;6.10;;;;;;;;;;5002950;28;20222;-68
2022/04/16 12:43:12;;;;;;;6.25;5.65;;;;;;;;;;5009977;28;20190;-68
2022/04/16 12:45:37;;;;;;;7.10;6.40;;;;;;;;;;5012835;28;20195;-68
2022/04/16 12:48:03;;;;;;;7.17;5.53;;;;;;;;;;5009096;28;20615;-68
2022/04/16 12:50:29;;;;;;;5.22;4.72;;;;;;;;;;5011173;28;20206;-68
2022/04/16 12:52:55;;;;;;;6.57;5.47;;;;;;;;;;5014042;28;20175;-68
2022/04/16 12:55:20;;;;;;;6.40;5.80;;;;;;;;;;5013949;28;20679;-68
2022/04/16 12:57:45;;;;;;;6.43;5.57;;;;;;;;;;5013193;28;20187;-68
2022/04/16 13:00:12;;;;;;;6.88;5.97;;;;;;;;;;5013278;28;20526;-68
2022/04/16 13:02:40;;;;;;;6.47;5.88;;;;;;;;;;5012855;28;20167;-69
2022/04/16 13:05:08;;;;;;;5.88;5.28;;;;;;;;;;5013969;28;20565;-68
2022/04/16 13:07:33;;;;;;;6.03;4.97;;;;;;;;;;5012796;28;20171;-68
2022/04/16 13:09:58;;;;;;;5.70;5.20;;;;;;;;;;5007750;28;20219;-68
2022/04/16 13:12:24;;;;;;;5.82;5.20;;;;;;;;;;5009935;28;20275;-68
2022/04/16 13:14:49;;;;;;;6.10;5.50;;;;;;;;;;5009115;28;20175;-68
2022/04/16 13:17:14;;;;;;;6.53;5.93;;;;;;;;;;5013276;28;20178;-68
2022/04/16 13:19:40;;;;;;;6.20;5.60;;;;;;;;;;5012863;28;20170;-68
2022/04/16 13:22:05;;;;;;;5.95;5.45;;;;;;;;;;5013340;28;20780;-68
2022/04/16 13:24:30;;;;;;;5.60;4.82;;;;;;;;;;5013533;28;20205;-68
2022/04/16 13:26:56;;;;;;;7.45;5.53;;;;;;;;;;5013370;28;20214;-68
2022/04/16 13:29:21;;;;;;;5.05;4.55;;;;;;;;;;5012714;28;20182;-68
2022/04/16 13:31:47;;;;;;;5.80;4.63;;;;;;;;;;5024801;28;20785;-67
2022/04/16 13:34:12;;;;;;;4.32;3.92;;;;;;;;;;5021736;28;20543;-68
2022/04/16 13:36:38;;;;;;;5.40;4.47;;;;;;;;;;5011485;28;20190;-68
2022/04/16 13:39:04;;;;;;;4.95;4.32;;;;;;;;;;5013637;28;20182;-69
2022/04/16 13:41:38;;;;;;;5.03;4.47;;;;;;;;;;5012009;28;20205;-68
2022/04/16 13:44:08;;;;;;;11.32;4.30;;;;;;;;;;5020041;28;20178;-68
2022/04/16 13:46:33;;;;;;;5.15;4.63;;;;;;;;;;5016288;28;20206;-68
2022/04/16 13:48:59;;;;;;;6.43;4.07;;;;;;;;;;5014066;28;20171;-68
2022/04/16 13:51:24;;;;;;;4.57;3.90;;;;;;;;;;5014476;28;20203;-68
2022/04/16 13:53:49;;;;;;;4.63;4.22;;;;;;;;;;5021695;28;20181;-68
2022/04/16 13:56:14;;;;;;;4.18;3.50;;;;;;;;;;5018961;28;20183;-68
2022/04/16 13:58:39;;;;;;;5.43;3.63;;;;;;;;;;5014829;28;20222;-68
2022/04/16 14:01:05;;;;;;;4.10;3.70;;;;;;;;;;5020779;28;20459;-68
2022/04/16 14:03:30;;;;;;;4.23;3.83;;;;;;;;;;5021672;28;20423;-68
2022/04/16 14:05:55;;;;;;;4.80;3.60;;;;;;;;;;5012108;28;20457;-68
2022/04/16 14:08:21;;;;;;;4.07;3.67;;;;;;;;;;5003433;28;20408;-68
2022/04/16 14:10:47;;;;;;;3.83;3.38;;;;;;;;;;5010794;28;20432;-68
2022/04/16 14:13:12;;;;;;;4.05;3.40;;;;;;;;;;5011923;28;20195;-68
2022/04/16 14:15:39;;;;;;;3.72;3.40;;;;;;;;;;5012462;28;20199;-68
2022/04/16 14:18:04;;;;;;;3.92;3.05;;;;;;;;;;5011395;28;20253;-68
2022/04/16 14:20:29;;;;;;;4.75;3.53;;;;;;;;;;5011972;28;20209;-68
2022/04/16 14:22:55;;;;;;;3.40;3.10;;;;;;;;;;5012375;28;20179;-68
2022/04/16 14:25:21;;;;;;;4.18;3.00;;;;;;;;;;5012167;28;20195;-68
2022/04/16 14:27:46;;;;;;;3.70;3.25;;;;;;;;;;5012081;28;20183;-68
2022/04/16 14:30:12;;;;;;;6.28;3.22;;;;;;;;;;5012179;28;20183;-68
2022/04/16 14:32:37;;;;;;;4.15;2.53;;;;;;;;;;5012239;28;20244;-68
2022/04/16 14:35:03;;;;;;;3.37;2.67;;;;;;;;;;5012689;28;20179;-68
2022/04/16 14:37:28;;;;;;;3.97;3.00;;;;;;;;;;5011872;28;20425;-68
2022/04/16 14:39:53;;;;;;;3.50;3.10;;;;;;;;;;5011933;28;20198;-68
2022/04/16 14:42:18;;;;;;;3.20;2.90;;;;;;;;;;5005943;28;20934;-68